createdAt,value
2019-04-29T00:02:11.229Z,19.20
2019-04-29T00:04:39.503Z,14.28
2019-04-29T00:07:08.804Z,15.83
2019-04-29T00:09:37.161Z,13.30
2019-04-29T00:12:05.545Z,16.48
2019-04-29T00:14:35.084Z,15.98
2019-04-29T00:17:14.284Z,17.07
2019-04-29T00:19:44.529Z,14.63
2019-04-29T00:22:13.096Z,15.90
2019-04-29T00:24:41.377Z,13.20
2019-04-29T00:27:09.687Z,15.77
2019-04-29T00:29:37.988Z,15.08
2019-04-29T00:32:06.671Z,15.35
2019-04-29T00:34:35.292Z,17.32
2019-04-29T00:37:21.362Z,14.83
2019-04-29T00:40:07.470Z,13.75
2019-04-29T00:42:37.441Z,17.17
2019-04-29T00:45:07.089Z,16.30
2019-04-29T00:47:35.692Z,16.40
2019-04-29T00:50:06.158Z,14.40
2019-04-29T00:52:34.450Z,13.38
2019-04-29T00:55:13.563Z,15.60
2019-04-29T00:57:42.212Z,16.02
2019-04-29T01:00:12.518Z,16.60
2019-04-29T01:02:41.224Z,13.98
2019-04-29T01:05:09.599Z,15.70
2019-04-29T01:07:37.888Z,14.50
2019-04-29T01:10:06.616Z,15.60
2019-04-29T01:12:35.496Z,16.35
2019-04-29T01:15:05.895Z,18.02
2019-04-29T01:17:34.459Z,19.15
2019-04-29T01:20:02.753Z,16.25
2019-04-29T01:22:31.512Z,18.17
2019-04-29T01:25:00.103Z,16.47
2019-04-29T01:27:30.049Z,19.37
2019-04-29T01:29:59.737Z,15.38
2019-04-29T01:32:28.062Z,16.47
2019-04-29T01:34:56.515Z,20.00
2019-04-29T01:37:26.627Z,17.77
2019-04-29T01:39:59.579Z,16.60
2019-04-29T01:42:29.523Z,18.75
2019-04-29T01:44:57.811Z,19.00
2019-04-29T01:47:26.132Z,19.00
2019-04-29T01:49:54.423Z,18.15
2019-04-29T01:52:22.739Z,19.87
2019-04-29T01:54:51.289Z,18.60
2019-04-29T01:57:19.889Z,19.95
2019-04-29T01:59:48.456Z,18.75
2019-04-29T02:02:16.760Z,17.50
2019-04-29T02:04:45.071Z,18.70
2019-04-29T02:07:13.441Z,17.25
2019-04-29T02:09:58.171Z,16.70
2019-04-29T02:12:26.457Z,19.17
2019-04-29T02:14:54.771Z,17.20
2019-04-29T02:17:23.049Z,17.45
2019-04-29T02:19:51.350Z,16.75
2019-04-29T02:22:33.121Z,24.23
2019-04-29T02:25:03.070Z,17.92
2019-04-29T02:27:31.637Z,16.48
2019-04-29T02:29:59.931Z,19.87
2019-04-29T02:32:28.322Z,19.17
2019-04-29T02:34:56.640Z,16.10
2019-04-29T02:37:26.569Z,15.65
2019-04-29T02:39:59.269Z,16.82
2019-04-29T02:42:45.656Z,19.67
2019-04-29T02:45:24.704Z,21.37
2019-04-29T02:47:53.001Z,17.32
2019-04-29T02:50:21.286Z,18.42
2019-04-29T02:52:49.599Z,19.40
2019-04-29T02:55:19.546Z,18.77
2019-04-29T02:57:55.295Z,21.73
2019-04-29T03:00:31.131Z,20.57
2019-04-29T03:03:13.359Z,20.85
2019-04-29T03:05:43.672Z,23.20
2019-04-29T03:08:12.038Z,19.35
2019-04-29T03:10:40.742Z,18.75
2019-04-29T03:13:09.277Z,24.77
2019-04-29T03:15:40.657Z,19.20
2019-04-29T03:18:08.994Z,20.88
2019-04-29T03:20:53.685Z,21.33
2019-04-29T03:23:23.633Z,20.23
2019-04-29T03:25:52.010Z,21.35
2019-04-29T03:28:20.584Z,22.35
2019-04-29T03:30:49.160Z,19.13
2019-04-29T03:33:17.464Z,18.05
2019-04-29T03:35:45.787Z,18.32
2019-04-29T03:38:14.100Z,18.45
2019-04-29T03:40:42.673Z,18.93
2019-04-29T03:43:10.965Z,20.80
2019-04-29T03:45:39.528Z,20.08
2019-04-29T03:48:08.136Z,20.70
2019-04-29T03:50:36.412Z,20.08
2019-04-29T03:53:04.805Z,18.40
2019-04-29T03:55:39.676Z,18.80
2019-04-29T03:58:03.110Z,18.73
2019-04-29T04:00:31.401Z,21.50
2019-04-29T04:03:01.350Z,20.90
2019-04-29T04:05:34.270Z,19.73
2019-04-29T04:08:13.617Z,20.57
2019-04-29T04:10:41.883Z,20.00
2019-04-29T04:13:10.204Z,21.48
2019-04-29T04:15:38.502Z,20.25
2019-04-29T04:18:23.308Z,19.45
2019-04-29T04:20:51.646Z,19.17
2019-04-29T04:23:19.898Z,16.10
2019-04-29T04:25:48.195Z,21.20
2019-04-29T04:28:16.592Z,19.23
2019-04-29T04:30:44.972Z,20.27
2019-04-29T04:33:13.542Z,20.05
2019-04-29T04:35:41.845Z,18.67
2019-04-29T04:38:10.502Z,17.53
2019-04-29T04:40:46.304Z,18.85
2019-04-29T04:43:14.601Z,18.12
2019-04-29T04:45:42.892Z,18.85
2019-04-29T04:48:11.482Z,22.42
2019-04-29T04:50:39.776Z,24.07
2019-04-29T04:53:08.065Z,39.13
2019-04-29T04:55:38.011Z,20.10
2019-04-29T04:58:06.342Z,17.83
2019-04-29T05:00:36.312Z,18.75
2019-04-29T05:03:04.766Z,17.67
2019-04-29T05:05:33.039Z,22.67
2019-04-29T05:08:01.361Z,16.62
2019-04-29T05:10:29.660Z,16.85
2019-04-29T05:12:58.024Z,18.80
2019-04-29T05:15:26.299Z,17.92
2019-04-29T05:17:54.604Z,17.15
2019-04-29T05:20:23.151Z,17.20
2019-04-29T05:22:59.978Z,17.10
2019-04-29T05:25:31.670Z,16.50
2019-04-29T05:28:00.135Z,17.02
2019-04-29T05:30:28.504Z,17.17
2019-04-29T05:32:56.824Z,18.77
2019-04-29T05:35:26.755Z,17.35
2019-04-29T05:37:59.508Z,17.85
2019-04-29T05:40:47.727Z,17.55
2019-04-29T05:43:17.701Z,19.65
2019-04-29T05:46:07.277Z,15.77
2019-04-29T05:48:34.219Z,19.90
2019-04-29T05:51:09.874Z,17.73
2019-04-29T05:53:42.544Z,17.42
2019-04-29T05:56:11.112Z,18.27
2019-04-29T05:58:39.658Z,19.75
2019-04-29T06:01:09.921Z,21.30
2019-04-29T06:03:39.777Z,17.57
2019-04-29T06:06:08.225Z,20.17
2019-04-29T06:08:39.251Z,16.82
2019-04-29T06:11:06.808Z,20.23
2019-04-29T06:13:35.351Z,17.85
2019-04-29T06:16:03.969Z,18.07
2019-04-29T06:18:32.258Z,20.73
2019-04-29T06:21:08.697Z,22.02
2019-04-29T06:23:30.639Z,20.80
2019-04-29T06:25:58.939Z,18.17
2019-04-29T06:28:28.221Z,24.77
2019-04-29T06:30:56.641Z,21.15
2019-04-29T06:33:29.063Z,23.90
2019-04-29T06:35:57.066Z,22.45
2019-04-29T06:38:25.478Z,16.70
2019-04-29T06:40:53.755Z,22.60
2019-04-29T06:43:24.672Z,16.30
2019-04-29T06:45:52.204Z,14.47
2019-04-29T06:48:20.767Z,17.85
2019-04-29T06:50:49.832Z,16.20
2019-04-29T06:53:21.214Z,17.48
2019-04-29T06:55:48.280Z,17.17
2019-04-29T06:58:16.957Z,21.73
2019-04-29T07:00:45.231Z,21.07
2019-04-29T07:03:13.909Z,25.45
2019-04-29T07:05:42.340Z,23.70
2019-04-29T07:08:11.082Z,23.12
2019-04-29T07:10:39.403Z,26.02
2019-04-29T07:13:07.681Z,25.62
2019-04-29T07:15:36.068Z,30.75
2019-04-29T07:18:05.100Z,28.30
2019-04-29T07:20:37.074Z,32.05
2019-04-29T07:23:03.435Z,41.28
2019-04-29T07:25:31.728Z,30.65
2019-04-29T07:28:00.028Z,30.85
2019-04-29T07:30:29.524Z,31.33
2019-04-29T07:32:57.906Z,33.47
2019-04-29T07:35:26.230Z,28.25
2019-04-29T07:37:54.616Z,39.73
2019-04-29T07:40:22.978Z,32.95
2019-04-29T07:42:51.295Z,36.80
2019-04-29T07:45:28.014Z,33.18
2019-04-29T07:47:56.833Z,37.75
2019-04-29T07:50:26.795Z,28.23
2019-04-29T07:52:55.442Z,26.80
2019-04-29T07:55:25.965Z,30.92
2019-04-29T07:57:54.121Z,31.20
2019-04-29T08:00:35.457Z,29.27
2019-04-29T08:03:06.826Z,28.20
2019-04-29T08:05:35.287Z,30.17
2019-04-29T08:08:04.240Z,31.02
2019-04-29T08:10:32.522Z,29.00
2019-04-29T08:13:01.002Z,30.15
2019-04-29T08:15:31.836Z,33.75
2019-04-29T08:18:06.316Z,30.82
2019-04-29T08:20:29.696Z,29.60
2019-04-29T08:22:58.343Z,28.80
2019-04-29T08:25:28.051Z,30.08
2019-04-29T08:27:56.340Z,31.35
2019-04-29T08:30:24.656Z,27.27
2019-04-29T08:32:53.306Z,28.65
2019-04-29T08:35:21.613Z,26.95
2019-04-29T08:37:49.909Z,24.70
2019-04-29T08:40:18.218Z,24.82
2019-04-29T08:43:04.490Z,20.35
2019-04-29T08:45:34.845Z,23.18
2019-04-29T08:48:04.720Z,25.48
2019-04-29T08:50:33.348Z,23.97
2019-04-29T08:53:01.632Z,22.20
2019-04-29T08:55:30.955Z,22.77
2019-04-29T08:57:59.969Z,24.30
2019-04-29T09:00:28.249Z,23.17
2019-04-29T09:02:56.548Z,22.30
2019-04-29T09:05:24.841Z,19.90
2019-04-29T09:07:57.285Z,22.63
2019-04-29T09:10:23.286Z,19.80
2019-04-29T09:12:51.578Z,20.23
2019-04-29T09:15:20.074Z,19.40
2019-04-29T09:17:48.326Z,20.30
2019-04-29T09:20:19.011Z,17.87
2019-04-29T09:22:48.964Z,18.98
2019-04-29T09:25:28.039Z,19.40
2019-04-29T09:27:58.142Z,18.17
2019-04-29T09:30:26.613Z,17.95
2019-04-29T09:32:54.912Z,17.40
2019-04-29T09:35:23.520Z,14.15
2019-04-29T09:37:53.892Z,12.57
2019-04-29T09:40:23.491Z,14.03
2019-04-29T09:42:59.364Z,14.07
2019-04-29T09:45:45.508Z,13.28
2019-04-29T09:48:13.829Z,12.98
2019-04-29T09:50:42.123Z,12.10
2019-04-29T09:53:10.440Z,10.23
2019-04-29T09:55:39.981Z,13.88
2019-04-29T09:58:09.118Z,11.40
2019-04-29T10:00:58.296Z,11.48
2019-04-29T10:03:45.425Z,15.68
2019-04-29T10:06:21.057Z,12.58
2019-04-29T10:08:49.651Z,11.93
2019-04-29T10:11:17.942Z,10.63
2019-04-29T10:13:46.312Z,9.83
2019-04-29T10:16:19.238Z,13.20
2019-04-29T10:18:54.960Z,11.50
2019-04-29T10:21:24.151Z,10.82
2019-04-29T10:23:52.638Z,11.80
2019-04-29T10:26:21.116Z,9.43
2019-04-29T10:28:59.782Z,11.33
2019-04-29T10:31:28.198Z,11.78
2019-04-29T10:33:56.604Z,8.80
2019-04-29T10:36:26.269Z,9.45
2019-04-29T10:38:56.804Z,9.77
2019-04-29T10:41:30.053Z,10.10
2019-04-29T10:44:00.011Z,9.60
2019-04-29T10:46:46.182Z,8.93
2019-04-29T10:49:16.433Z,10.98
2019-04-29T10:51:45.013Z,9.73
2019-04-29T10:54:14.336Z,10.48
2019-04-29T10:56:42.782Z,11.68
2019-04-29T10:59:11.629Z,9.50
2019-04-29T11:02:00.668Z,10.90
2019-04-29T11:04:20.414Z,9.83
2019-04-29T11:06:49.113Z,12.80
2019-04-29T11:09:31.188Z,12.55
2019-04-29T11:11:59.476Z,9.20
2019-04-29T11:14:27.801Z,12.30
2019-04-29T11:16:56.326Z,10.78
2019-04-29T11:19:24.919Z,9.95
2019-04-29T11:21:53.312Z,11.25
2019-04-29T11:24:25.740Z,9.83
2019-04-29T11:26:55.779Z,10.60
2019-04-29T11:29:27.388Z,12.23
2019-04-29T11:31:55.939Z,11.50
2019-04-29T11:34:33.384Z,11.53
2019-04-29T11:37:01.768Z,9.27
2019-04-29T11:39:30.065Z,9.20
2019-04-29T11:41:59.798Z,10.35
2019-04-29T11:44:31.856Z,9.65
2019-04-29T11:46:59.719Z,8.63
2019-04-29T11:49:29.724Z,11.75
2019-04-29T11:52:09.099Z,10.75
2019-04-29T11:54:28.760Z,19.77
2019-04-29T11:56:57.069Z,13.25
2019-04-29T11:59:36.144Z,9.28
2019-04-29T12:02:24.763Z,10.32
2019-04-29T12:04:59.206Z,6.95
2019-04-29T12:07:32.548Z,9.53
2019-04-29T12:10:02.244Z,14.97
2019-04-29T12:12:28.752Z,9.23
2019-04-29T12:14:58.679Z,8.70
2019-04-29T12:17:28.629Z,8.78
2019-04-29T12:19:58.537Z,9.40
2019-04-29T12:22:30.740Z,13.53
2019-04-29T12:24:57.176Z,7.87
2019-04-29T12:27:28.960Z,11.25
2019-04-29T12:29:59.462Z,12.07
2019-04-29T12:32:27.840Z,8.65
2019-04-29T12:35:06.648Z,9.88
2019-04-29T12:37:39.273Z,15.88
2019-04-29T12:40:16.221Z,12.30
2019-04-29T12:42:58.321Z,7.40
2019-04-29T12:45:28.289Z,7.22
2019-04-29T12:47:56.577Z,7.03
2019-04-29T12:50:24.947Z,6.90
2019-04-29T12:52:53.221Z,6.33
2019-04-29T12:55:49.074Z,5.97
2019-04-29T12:58:11.751Z,5.12
2019-04-29T13:00:47.524Z,4.75
2019-04-29T13:03:17.697Z,5.35
2019-04-29T13:05:58.414Z,5.33
2019-04-29T13:08:39.854Z,5.67
2019-04-29T13:11:09.689Z,5.63
2019-04-29T13:13:37.968Z,5.92
2019-04-29T13:16:20.087Z,5.08
2019-04-29T13:18:48.968Z,5.80
2019-04-29T13:21:18.764Z,4.80
2019-04-29T13:23:59.519Z,5.62
2019-04-29T13:26:27.812Z,5.42
2019-04-29T13:29:00.450Z,5.80
2019-04-29T13:31:20.137Z,5.83
2019-04-29T13:33:51.015Z,5.53
2019-04-29T13:36:19.637Z,5.10
2019-04-29T13:38:48.573Z,5.83
2019-04-29T13:41:23.820Z,4.60
2019-04-29T13:43:47.362Z,5.15
2019-04-29T13:46:17.292Z,4.08
2019-04-29T13:49:12.831Z,6.70
2019-04-29T13:51:39.475Z,4.92
2019-04-29T13:54:07.762Z,5.10
2019-04-29T13:56:54.551Z,5.42
2019-04-29T13:59:10.728Z,4.70
2019-04-29T14:01:57.768Z,4.80
2019-04-29T14:04:13.837Z,6.30
2019-04-29T14:06:56.139Z,4.30
2019-04-29T14:09:14.303Z,4.42
2019-04-29T14:11:42.577Z,5.00
2019-04-29T14:14:10.878Z,3.87
2019-04-29T14:16:43.063Z,3.05
2019-04-29T14:19:09.358Z,3.33
2019-04-29T14:21:37.655Z,4.12
2019-04-29T14:24:06.307Z,4.40
2019-04-29T14:26:36.965Z,6.65
2019-04-29T14:29:05.255Z,6.30
2019-04-29T14:31:33.539Z,5.15
2019-04-29T14:34:21.796Z,3.72
2019-04-29T14:36:50.099Z,3.40
2019-04-29T14:39:36.131Z,5.42
2019-04-29T14:41:51.027Z,3.62
2019-04-29T14:44:33.677Z,3.83
2019-04-29T14:47:06.272Z,6.00
2019-04-29T14:49:39.741Z,3.90
2019-04-29T14:52:08.281Z,3.60
2019-04-29T14:54:36.867Z,5.60
2019-04-29T14:57:09.105Z,4.55
2019-04-29T14:59:37.315Z,5.30
2019-04-29T15:02:11.919Z,5.20
2019-04-29T15:04:39.312Z,4.55
2019-04-29T15:07:07.714Z,5.50
2019-04-29T15:09:46.367Z,6.20
2019-04-29T15:12:17.269Z,6.72
2019-04-29T15:14:47.693Z,4.85
2019-04-29T15:17:17.734Z,7.40
2019-04-29T15:19:55.760Z,5.60
2019-04-29T15:22:30.246Z,8.63
2019-04-29T15:24:58.526Z,7.47
2019-04-29T15:27:26.913Z,7.83
2019-04-29T15:29:55.199Z,8.15
2019-04-29T15:32:23.916Z,7.05
2019-04-29T15:34:52.229Z,8.45
2019-04-29T15:37:20.513Z,8.40
2019-04-29T15:39:48.802Z,7.75
2019-04-29T15:42:17.342Z,7.20
2019-04-29T15:44:46.030Z,7.77
2019-04-29T15:47:14.619Z,10.53
2019-04-29T15:49:42.905Z,8.25
2019-04-29T15:52:11.191Z,8.35
2019-04-29T15:54:39.846Z,8.75
2019-04-29T15:57:10.749Z,10.15
2019-04-29T15:59:48.449Z,10.15
2019-04-29T16:02:09.273Z,9.35
2019-04-29T16:04:39.383Z,10.58
2019-04-29T16:07:25.238Z,9.45
2019-04-29T16:10:14.471Z,9.98
2019-04-29T16:12:45.355Z,8.28
2019-04-29T16:15:13.628Z,11.55
2019-04-29T16:17:42.001Z,10.03
2019-04-29T16:20:10.275Z,10.90
2019-04-29T16:22:39.353Z,11.73
2019-04-29T16:25:11.023Z,11.78
2019-04-29T16:27:41.593Z,10.43
2019-04-29T16:30:08.524Z,10.72
2019-04-29T16:32:38.471Z,11.40
2019-04-29T16:35:07.154Z,12.47
2019-04-29T16:37:35.504Z,10.90
2019-04-29T16:40:07.551Z,11.35
2019-04-29T16:42:43.661Z,12.85
2019-04-29T16:45:14.216Z,15.17
2019-04-29T16:47:47.554Z,11.40
2019-04-29T16:50:12.323Z,12.10
2019-04-29T16:52:44.332Z,14.50
2019-04-29T16:55:11.379Z,13.25
2019-04-29T16:57:39.661Z,14.00
2019-04-29T17:00:13.689Z,12.73
2019-04-29T17:02:40.422Z,15.83
2019-04-29T17:05:09.135Z,12.63
2019-04-29T17:07:37.491Z,13.58
2019-04-29T17:10:10.869Z,14.07
2019-04-29T17:12:40.794Z,12.20
2019-04-29T17:15:23.573Z,15.08
2019-04-29T17:17:39.424Z,13.35
2019-04-29T17:20:08.279Z,18.90
2019-04-29T17:22:43.246Z,14.93
2019-04-29T17:25:08.454Z,15.13
2019-04-29T17:27:47.387Z,13.20
2019-04-29T17:30:38.290Z,13.00
2019-04-29T17:33:26.470Z,15.20
2019-04-29T17:35:47.905Z,15.18
2019-04-29T17:38:17.353Z,16.30
2019-04-29T17:40:51.244Z,17.85
2019-04-29T17:43:17.689Z,15.65
2019-04-29T17:45:47.621Z,18.12
2019-04-29T17:48:33.782Z,18.95
2019-04-29T17:51:03.919Z,17.45
2019-04-29T17:53:40.012Z,18.12
2019-04-29T17:56:14.953Z,18.98
2019-04-29T17:58:54.733Z,20.08
2019-04-29T18:01:29.018Z,19.25
2019-04-29T18:04:11.816Z,20.90
2019-04-29T18:06:40.315Z,19.63
2019-04-29T18:09:31.834Z,20.82
2019-04-29T18:12:01.266Z,18.55
2019-04-29T18:14:36.570Z,20.12
2019-04-29T18:16:59.713Z,18.65
2019-04-29T18:19:36.184Z,17.85
2019-04-29T18:22:07.320Z,17.07
2019-04-29T18:24:37.497Z,18.98
2019-04-29T18:27:10.264Z,18.77
2019-04-29T18:29:41.607Z,16.85
2019-04-29T18:32:08.928Z,17.55
2019-04-29T18:34:38.002Z,16.55
2019-04-29T18:37:06.682Z,17.63
2019-04-29T18:39:35.302Z,18.52
2019-04-29T18:42:06.711Z,19.82
2019-04-29T18:44:33.629Z,19.42
2019-04-29T18:47:01.947Z,17.87
2019-04-29T18:49:30.250Z,17.80
2019-04-29T18:52:02.153Z,19.73
2019-04-29T18:54:28.560Z,17.65
2019-04-29T18:56:56.891Z,19.00
2019-04-29T18:59:30.706Z,17.10
2019-04-29T19:01:55.470Z,17.52
2019-04-29T19:04:31.272Z,14.40
2019-04-29T19:07:02.424Z,15.60
2019-04-29T19:09:32.153Z,14.78
2019-04-29T19:12:01.642Z,18.85
2019-04-29T19:14:29.939Z,15.85
2019-04-29T19:17:01.300Z,15.32
2019-04-29T19:19:30.835Z,17.73
2019-04-29T19:22:00.793Z,17.62
2019-04-29T19:24:31.507Z,17.27
2019-04-29T19:27:00.778Z,14.15
2019-04-29T19:29:29.499Z,14.78
2019-04-29T19:31:57.889Z,16.93
2019-04-29T19:34:26.276Z,18.70
2019-04-29T19:36:58.155Z,15.07
2019-04-29T19:39:25.524Z,14.83
2019-04-29T19:41:55.719Z,15.93
2019-04-29T19:44:26.488Z,16.25
2019-04-29T19:46:56.949Z,13.98
2019-04-29T19:49:25.780Z,14.15
2019-04-29T19:51:55.537Z,14.45
2019-04-29T19:54:28.365Z,16.57
2019-04-29T19:57:02.940Z,18.65
2019-04-29T19:59:26.103Z,18.70
2019-04-29T20:02:02.015Z,17.00
2019-04-29T20:04:32.002Z,18.13
2019-04-29T20:07:06.665Z,17.15
2019-04-29T20:09:31.644Z,16.37
2019-04-29T20:12:11.835Z,19.57
2019-04-29T20:14:33.673Z,17.15
2019-04-29T20:17:09.541Z,14.68
2019-04-29T20:19:40.581Z,16.30
2019-04-29T20:22:09.843Z,18.12
2019-04-29T20:24:38.709Z,15.30
2019-04-29T20:27:07.527Z,15.45
2019-04-29T20:29:38.370Z,16.42
2019-04-29T20:32:07.885Z,17.47
2019-04-29T20:34:36.507Z,16.43
2019-04-29T20:37:05.967Z,21.00
2019-04-29T20:39:35.687Z,23.32
2019-04-29T20:42:06.392Z,18.65
2019-04-29T20:44:36.530Z,20.30
2019-04-29T20:47:19.105Z,18.73
2019-04-29T20:49:37.228Z,19.98
2019-04-29T20:52:06.502Z,20.37
2019-04-29T20:54:36.022Z,18.32
2019-04-29T20:57:06.971Z,19.15
2019-04-29T20:59:35.852Z,19.30
2019-04-29T21:02:12.579Z,19.67
2019-04-29T21:04:45.716Z,21.82
2019-04-29T21:07:07.030Z,19.48
2019-04-29T21:09:35.717Z,20.75
2019-04-29T21:12:22.609Z,21.30
2019-04-29T21:14:52.543Z,21.90
2019-04-29T21:17:30.835Z,24.98
2019-04-29T21:19:50.863Z,21.70
2019-04-29T21:22:23.439Z,25.40
2019-04-29T21:24:53.709Z,20.97
2019-04-29T21:27:22.551Z,19.42
2019-04-29T21:29:49.914Z,22.80
2019-04-29T21:32:19.895Z,20.70
2019-04-29T21:34:50.099Z,23.07
2019-04-29T21:37:32.250Z,23.10
2019-04-29T21:40:14.607Z,22.60
2019-04-29T21:42:47.121Z,23.15
2019-04-29T21:45:15.528Z,21.93
2019-04-29T21:47:52.712Z,22.80
2019-04-29T21:50:15.392Z,21.93
2019-04-29T21:52:44.743Z,23.30
2019-04-29T21:55:15.938Z,23.07
2019-04-29T21:57:44.706Z,22.65
2019-04-29T22:00:15.658Z,23.83
2019-04-29T22:02:46.683Z,30.15
2019-04-29T22:05:18.428Z,24.32
2019-04-29T22:07:47.482Z,24.90
2019-04-29T22:10:15.376Z,23.30
2019-04-29T22:12:43.622Z,22.25
2019-04-29T22:15:13.557Z,27.20
2019-04-29T22:17:53.785Z,23.93
2019-04-29T22:20:15.854Z,26.15
2019-04-29T22:22:45.250Z,25.77
2019-04-29T22:25:15.751Z,25.02
2019-04-29T22:27:45.127Z,27.17
2019-04-29T22:30:18.494Z,28.17
2019-04-29T22:32:47.153Z,28.02
2019-04-29T22:35:16.580Z,26.57
2019-04-29T22:37:45.402Z,25.87
2019-04-29T22:40:15.469Z,27.17
2019-04-29T22:42:47.462Z,28.55
2019-04-29T22:45:16.039Z,28.53
2019-04-29T22:47:44.363Z,30.62
2019-04-29T22:50:13.608Z,27.15
2019-04-29T22:52:42.204Z,31.42
2019-04-29T22:55:11.096Z,30.10
2019-04-29T22:57:39.395Z,30.00
2019-04-29T23:00:08.422Z,29.20
2019-04-29T23:02:36.702Z,28.07
2019-04-29T23:05:07.983Z,33.00
2019-04-29T23:07:37.744Z,30.82
2019-04-29T23:10:07.337Z,30.30
2019-04-29T23:12:35.628Z,30.08
2019-04-29T23:15:07.814Z,32.37
2019-04-29T23:17:36.121Z,31.97
2019-04-29T23:20:09.244Z,32.40
2019-04-29T23:22:45.128Z,36.65
2019-04-29T23:25:21.727Z,37.03
2019-04-29T23:27:52.201Z,36.88
2019-04-29T23:30:20.396Z,38.67
2019-04-29T23:32:48.692Z,33.83
2019-04-29T23:35:16.983Z,35.28
2019-04-29T23:37:45.767Z,36.00
2019-04-29T23:40:15.187Z,38.35
2019-04-29T23:42:47.483Z,38.73
2019-04-29T23:45:20.790Z,41.55
2019-04-29T23:47:46.980Z,41.63
2019-04-29T23:50:18.747Z,40.67
2019-04-29T23:52:47.929Z,37.83
2019-04-29T23:55:15.940Z,40.98
2019-04-29T23:57:46.095Z,43.78
